sensor_id;sensor_type;location;lat;lon;timestamp;temperature;humidity
65239;SHT30;51827;51.186;6.926;2023-04-24T00:00:42;20.61;53.73
65239;SHT30;51827;51.186;6.926;2023-04-24T00:01:42;20.59;53.71
65239;SHT30;51827;51.186;6.926;2023-04-24T00:02:44;20.62;53.75
65239;SHT30;51827;51.186;6.926;2023-04-24T00:03:44;20.61;53.73
65239;SHT30;51827;51.186;6.926;2023-04-24T00:04:45;20.61;53.67
65239;SHT30;51827;51.186;6.926;2023-04-24T00:05:45;20.58;53.73
65239;SHT30;51827;51.186;6.926;2023-04-24T00:06:45;20.59;53.68
65239;SHT30;51827;51.186;6.926;2023-04-24T00:07:45;20.59;53.68
65239;SHT30;51827;51.186;6.926;2023-04-24T00:08:46;20.61;53.68
65239;SHT30;51827;51.186;6.926;2023-04-24T00:09:46;20.58;53.69
65239;SHT30;51827;51.186;6.926;2023-04-24T00:10:46;20.58;53.66
65239;SHT30;51827;51.186;6.926;2023-04-24T00:11:46;20.59;53.66
65239;SHT30;51827;51.186;6.926;2023-04-24T00:12:47;20.59;53.66
65239;SHT30;51827;51.186;6.926;2023-04-24T00:13:47;20.58;53.67
65239;SHT30;51827;51.186;6.926;2023-04-24T00:14:48;20.58;53.70
65239;SHT30;51827;51.186;6.926;2023-04-24T00:15:48;20.58;53.66
65239;SHT30;51827;51.186;6.926;2023-04-24T00:16:48;20.56;53.70
65239;SHT30;51827;51.186;6.926;2023-04-24T00:17:49;20.58;53.68
65239;SHT30;51827;51.186;6.926;2023-04-24T00:18:49;20.58;53.68
65239;SHT30;51827;51.186;6.926;2023-04-24T00:19:49;20.59;53.63
65239;SHT30;51827;51.186;6.926;2023-04-24T00:20:49;20.58;53.66
65239;SHT30;51827;51.186;6.926;2023-04-24T00:21:50;20.59;53.66
65239;SHT30;51827;51.186;6.926;2023-04-24T00:22:50;20.59;53.63
65239;SHT30;51827;51.186;6.926;2023-04-24T00:23:50;20.58;53.65
65239;SHT30;51827;51.186;6.926;2023-04-24T00:24:51;20.58;53.65
65239;SHT30;51827;51.186;6.926;2023-04-24T00:25:51;20.55;53.62
65239;SHT30;51827;51.186;6.926;2023-04-24T00:26:51;20.56;53.62
65239;SHT30;51827;51.186;6.926;2023-04-24T00:27:51;20.55;53.60
65239;SHT30;51827;51.186;6.926;2023-04-24T00:28:52;20.58;53.60
65239;SHT30;51827;51.186;6.926;2023-04-24T00:29:52;20.58;53.60
65239;SHT30;51827;51.186;6.926;2023-04-24T00:30:53;20.56;53.63
65239;SHT30;51827;51.186;6.926;2023-04-24T00:31:54;20.56;53.60
65239;SHT30;51827;51.186;6.926;2023-04-24T00:32:54;20.55;53.60
65239;SHT30;51827;51.186;6.926;2023-04-24T00:33:54;20.55;53.59
65239;SHT30;51827;51.186;6.926;2023-04-24T00:34:54;20.56;53.60
65239;SHT30;51827;51.186;6.926;2023-04-24T00:35:54;20.55;53.61
65239;SHT30;51827;51.186;6.926;2023-04-24T00:36:55;20.55;53.60
65239;SHT30;51827;51.186;6.926;2023-04-24T00:37:55;20.56;53.57
65239;SHT30;51827;51.186;6.926;2023-04-24T00:38:55;20.52;53.57
65239;SHT30;51827;51.186;6.926;2023-04-24T00:39:56;20.56;53.56
65239;SHT30;51827;51.186;6.926;2023-04-24T00:40:56;20.52;53.57
65239;SHT30;51827;51.186;6.926;2023-04-24T00:41:56;20.56;53.56
65239;SHT30;51827;51.186;6.926;2023-04-24T00:42:56;20.55;53.54
65239;SHT30;51827;51.186;6.926;2023-04-24T00:43:57;20.58;53.55
65239;SHT30;51827;51.186;6.926;2023-04-24T00:44:57;20.55;53.57
65239;SHT30;51827;51.186;6.926;2023-04-24T00:45:58;20.55;53.56
65239;SHT30;51827;51.186;6.926;2023-04-24T00:46:58;20.55;53.54
65239;SHT30;51827;51.186;6.926;2023-04-24T00:48:00;20.53;53.54
65239;SHT30;51827;51.186;6.926;2023-04-24T00:49:00;20.53;53.56
65239;SHT30;51827;51.186;6.926;2023-04-24T00:50:04;20.53;53.52
65239;SHT30;51827;51.186;6.926;2023-04-24T00:51:05;20.56;53.53
65239;SHT30;51827;51.186;6.926;2023-04-24T00:52:05;20.55;53.54
65239;SHT30;51827;51.186;6.926;2023-04-24T00:53:05;20.53;53.52
65239;SHT30;51827;51.186;6.926;2023-04-24T00:54:06;20.52;53.52
65239;SHT30;51827;51.186;6.926;2023-04-24T00:55:06;20.55;53.50
65239;SHT30;51827;51.186;6.926;2023-04-24T00:56:07;20.51;53.53
65239;SHT30;51827;51.186;6.926;2023-04-24T00:57:07;20.53;53.52
65239;SHT30;51827;51.186;6.926;2023-04-24T00:58:07;20.52;53.51
65239;SHT30;51827;51.186;6.926;2023-04-24T00:59:08;20.53;53.45
65239;SHT30;51827;51.186;6.926;2023-04-24T01:00:09;20.52;53.51
65239;SHT30;51827;51.186;6.926;2023-04-24T01:01:09;20.53;53.51
65239;SHT30;51827;51.186;6.926;2023-04-24T01:02:10;20.53;53.45
65239;SHT30;51827;51.186;6.926;2023-04-24T01:03:11;20.53;53.49
65239;SHT30;51827;51.186;6.926;2023-04-24T01:04:12;20.52;53.47
65239;SHT30;51827;51.186;6.926;2023-04-24T01:05:13;20.53;53.45
65239;SHT30;51827;51.186;6.926;2023-04-24T01:06:14;20.52;53.46
65239;SHT30;51827;51.186;6.926;2023-04-24T01:07:15;20.53;53.46
65239;SHT30;51827;51.186;6.926;2023-04-24T01:08:16;20.52;53.41
65239;SHT30;51827;51.186;6.926;2023-04-24T01:09:17;20.52;53.45
65239;SHT30;51827;51.186;6.926;2023-04-24T01:10:18;20.52;53.43
65239;SHT30;51827;51.186;6.926;2023-04-24T01:11:19;20.52;53.44
65239;SHT30;51827;51.186;6.926;2023-04-24T01:12:19;20.52;53.45
65239;SHT30;51827;51.186;6.926;2023-04-24T01:13:19;20.53;53.41
65239;SHT30;51827;51.186;6.926;2023-04-24T01:14:20;20.53;53.44
65239;SHT30;51827;51.186;6.926;2023-04-24T01:15:20;20.52;53.42
65239;SHT30;51827;51.186;6.926;2023-04-24T01:16:20;20.48;53.40
65239;SHT30;51827;51.186;6.926;2023-04-24T01:17:21;20.52;53.44
65239;SHT30;51827;51.186;6.926;2023-04-24T01:18:21;20.49;53.43
65239;SHT30;51827;51.186;6.926;2023-04-24T01:19:21;20.51;53.42
65239;SHT30;51827;51.186;6.926;2023-04-24T01:20:22;20.53;53.39
65239;SHT30;51827;51.186;6.926;2023-04-24T01:21:23;20.52;53.40
65239;SHT30;51827;51.186;6.926;2023-04-24T01:22:26;20.49;53.39
65239;SHT30;51827;51.186;6.926;2023-04-24T01:23:26;20.49;53.35
65239;SHT30;51827;51.186;6.926;2023-04-24T01:24:27;20.51;53.38
65239;SHT30;51827;51.186;6.926;2023-04-24T01:25:28;20.51;53.39
65239;SHT30;51827;51.186;6.926;2023-04-24T01:26:29;20.51;53.39
65239;SHT30;51827;51.186;6.926;2023-04-24T01:27:29;20.48;53.36
65239;SHT30;51827;51.186;6.926;2023-04-24T01:28:30;20.51;53.35
65239;SHT30;51827;51.186;6.926;2023-04-24T01:29:30;20.49;53.34
65239;SHT30;51827;51.186;6.926;2023-04-24T01:30:31;20.49;53.32
65239;SHT30;51827;51.186;6.926;2023-04-24T01:31:31;20.51;53.34
65239;SHT30;51827;51.186;6.926;2023-04-24T01:32:32;20.52;53.35
65239;SHT30;51827;51.186;6.926;2023-04-24T01:33:33;20.51;53.34
65239;SHT30;51827;51.186;6.926;2023-04-24T01:34:34;20.49;53.35
65239;SHT30;51827;51.186;6.926;2023-04-24T01:35:34;20.51;53.29
65239;SHT30;51827;51.186;6.926;2023-04-24T01:36:35;20.49;53.29
65239;SHT30;51827;51.186;6.926;2023-04-24T01:37:36;20.52;53.32
65239;SHT30;51827;51.186;6.926;2023-04-24T01:38:36;20.51;53.29
65239;SHT30;51827;51.186;6.926;2023-04-24T01:39:37;20.48;53.34
65239;SHT30;51827;51.186;6.926;2023-04-24T01:40:37;20.49;53.31
65239;SHT30;51827;51.186;6.926;2023-04-24T01:41:38;20.51;53.30
65239;SHT30;51827;51.186;6.926;2023-04-24T01:42:40;20.51;53.28
65239;SHT30;51827;51.186;6.926;2023-04-24T01:43:41;20.51;53.28
65239;SHT30;51827;51.186;6.926;2023-04-24T01:44:41;20.51;53.25
65239;SHT30;51827;51.186;6.926;2023-04-24T01:45:42;20.51;53.24
65239;SHT30;51827;51.186;6.926;2023-04-24T01:46:42;20.49;53.23
65239;SHT30;51827;51.186;6.926;2023-04-24T01:47:43;20.51;53.24
65239;SHT30;51827;51.186;6.926;2023-04-24T01:48:44;20.51;53.22
65239;SHT30;51827;51.186;6.926;2023-04-24T01:49:45;20.48;53.28
65239;SHT30;51827;51.186;6.926;2023-04-24T01:50:46;20.48;53.22
65239;SHT30;51827;51.186;6.926;2023-04-24T01:51:46;20.49;53.23
65239;SHT30;51827;51.186;6.926;2023-04-24T01:52:46;20.48;53.22
65239;SHT30;51827;51.186;6.926;2023-04-24T01:53:46;20.47;53.19
65239;SHT30;51827;51.186;6.926;2023-04-24T01:54:47;20.48;53.21
65239;SHT30;51827;51.186;6.926;2023-04-24T01:55:47;20.51;53.19
65239;SHT30;51827;51.186;6.926;2023-04-24T01:56:48;20.48;53.22
65239;SHT30;51827;51.186;6.926;2023-04-24T01:57:48;20.47;53.22
65239;SHT30;51827;51.186;6.926;2023-04-24T01:58:53;20.49;53.21
65239;SHT30;51827;51.186;6.926;2023-04-24T01:59:53;20.47;53.17
65239;SHT30;51827;51.186;6.926;2023-04-24T02:00:56;20.48;53.19
65239;SHT30;51827;51.186;6.926;2023-04-24T02:01:56;20.45;53.15
65239;SHT30;51827;51.186;6.926;2023-04-24T02:02:57;20.48;53.14
65239;SHT30;51827;51.186;6.926;2023-04-24T02:03:57;20.47;53.17
65239;SHT30;51827;51.186;6.926;2023-04-24T02:04:57;20.49;53.15
65239;SHT30;51827;51.186;6.926;2023-04-24T02:05:57;20.47;53.12
65239;SHT30;51827;51.186;6.926;2023-04-24T02:06:58;20.47;53.11
65239;SHT30;51827;51.186;6.926;2023-04-24T02:07:58;20.47;53.07
65239;SHT30;51827;51.186;6.926;2023-04-24T02:08:59;20.48;53.16
65239;SHT30;51827;51.186;6.926;2023-04-24T02:09:59;20.47;53.14
65239;SHT30;51827;51.186;6.926;2023-04-24T02:11:00;20.48;53.12
65239;SHT30;51827;51.186;6.926;2023-04-24T02:12:00;20.48;53.07
65239;SHT30;51827;51.186;6.926;2023-04-24T02:13:00;20.47;53.10
65239;SHT30;51827;51.186;6.926;2023-04-24T02:14:00;20.45;53.08
65239;SHT30;51827;51.186;6.926;2023-04-24T02:15:01;20.47;53.04
65239;SHT30;51827;51.186;6.926;2023-04-24T02:16:01;20.47;53.04
65239;SHT30;51827;51.186;6.926;2023-04-24T02:17:01;20.45;53.07
65239;SHT30;51827;51.186;6.926;2023-04-24T02:18:02;20.47;53.07
65239;SHT30;51827;51.186;6.926;2023-04-24T02:19:02;20.48;53.03
65239;SHT30;51827;51.186;6.926;2023-04-24T02:20:04;20.45;53.06
65239;SHT30;51827;51.186;6.926;2023-04-24T02:21:04;20.47;53.04
65239;SHT30;51827;51.186;6.926;2023-04-24T02:22:05;20.45;53.01
65239;SHT30;51827;51.186;6.926;2023-04-24T02:23:05;20.44;53.05
65239;SHT30;51827;51.186;6.926;2023-04-24T02:24:05;20.45;53.06
65239;SHT30;51827;51.186;6.926;2023-04-24T02:25:06;20.45;53.01
65239;SHT30;51827;51.186;6.926;2023-04-24T02:26:06;20.45;53.03
65239;SHT30;51827;51.186;6.926;2023-04-24T02:27:07;20.44;53.02
65239;SHT30;51827;51.186;6.926;2023-04-24T02:28:07;20.44;53.03
65239;SHT30;51827;51.186;6.926;2023-04-24T02:29:07;20.45;53.01
65239;SHT30;51827;51.186;6.926;2023-04-24T02:30:08;20.47;53.02
65239;SHT30;51827;51.186;6.926;2023-04-24T02:31:08;20.45;52.99
65239;SHT30;51827;51.186;6.926;2023-04-24T02:32:08;20.42;52.99
65239;SHT30;51827;51.186;6.926;2023-04-24T02:33:09;20.45;52.98
65239;SHT30;51827;51.186;6.926;2023-04-24T02:34:09;20.42;53.00
65239;SHT30;51827;51.186;6.926;2023-04-24T02:35:09;20.45;52.95
65239;SHT30;51827;51.186;6.926;2023-04-24T02:36:09;20.45;52.97
65239;SHT30;51827;51.186;6.926;2023-04-24T02:37:10;20.42;52.95
65239;SHT30;51827;51.186;6.926;2023-04-24T02:38:10;20.44;52.93
65239;SHT30;51827;51.186;6.926;2023-04-24T02:39:10;20.44;52.98
65239;SHT30;51827;51.186;6.926;2023-04-24T02:40:11;20.47;52.96
65239;SHT30;51827;51.186;6.926;2023-04-24T02:41:11;20.42;52.96
65239;SHT30;51827;51.186;6.926;2023-04-24T02:42:11;20.42;52.93
65239;SHT30;51827;51.186;6.926;2023-04-24T02:43:11;20.45;52.91
65239;SHT30;51827;51.186;6.926;2023-04-24T02:44:12;20.44;52.95
65239;SHT30;51827;51.186;6.926;2023-04-24T02:45:12;20.42;52.96
65239;SHT30;51827;51.186;6.926;2023-04-24T02:46:12;20.42;52.93
65239;SHT30;51827;51.186;6.926;2023-04-24T02:47:12;20.42;52.92
65239;SHT30;51827;51.186;6.926;2023-04-24T02:48:13;20.44;52.94
65239;SHT30;51827;51.186;6.926;2023-04-24T02:49:13;20.44;52.92
65239;SHT30;51827;51.186;6.926;2023-04-24T02:50:13;20.45;52.90
65239;SHT30;51827;51.186;6.926;2023-04-24T02:51:13;20.42;52.92
65239;SHT30;51827;51.186;6.926;2023-04-24T02:52:14;20.42;52.90
65239;SHT30;51827;51.186;6.926;2023-04-24T02:53:14;20.42;52.91
65239;SHT30;51827;51.186;6.926;2023-04-24T02:54:14;20.42;52.88
65239;SHT30;51827;51.186;6.926;2023-04-24T02:55:14;20.42;52.88
65239;SHT30;51827;51.186;6.926;2023-04-24T02:56:15;20.42;52.86
65239;SHT30;51827;51.186;6.926;2023-04-24T02:57:15;20.41;52.87
65239;SHT30;51827;51.186;6.926;2023-04-24T02:58:15;20.41;52.84
65239;SHT30;51827;51.186;6.926;2023-04-24T02:59:15;20.44;52.83
65239;SHT30;51827;51.186;6.926;2023-04-24T03:00:16;20.41;52.85
65239;SHT30;51827;51.186;6.926;2023-04-24T03:01:16;20.39;52.85
65239;SHT30;51827;51.186;6.926;2023-04-24T03:02:16;20.41;52.83
65239;SHT30;51827;51.186;6.926;2023-04-24T03:03:17;20.42;52.84
65239;SHT30;51827;51.186;6.926;2023-04-24T03:04:17;20.44;52.83
65239;SHT30;51827;51.186;6.926;2023-04-24T03:05:17;20.41;52.83
65239;SHT30;51827;51.186;6.926;2023-04-24T03:06:17;20.39;52.85
65239;SHT30;51827;51.186;6.926;2023-04-24T03:07:18;20.42;52.83
65239;SHT30;51827;51.186;6.926;2023-04-24T03:08:18;20.41;52.82
65239;SHT30;51827;51.186;6.926;2023-04-24T03:09:18;20.39;52.80
65239;SHT30;51827;51.186;6.926;2023-04-24T03:10:19;20.41;52.79
65239;SHT30;51827;51.186;6.926;2023-04-24T03:11:19;20.39;52.84
65239;SHT30;51827;51.186;6.926;2023-04-24T03:12:19;20.39;52.87
65239;SHT30;51827;51.186;6.926;2023-04-24T03:13:19;20.39;52.84
65239;SHT30;51827;51.186;6.926;2023-04-24T03:14:20;20.39;52.81
65239;SHT30;51827;51.186;6.926;2023-04-24T03:15:20;20.37;52.81
65239;SHT30;51827;51.186;6.926;2023-04-24T03:16:20;20.39;52.81
65239;SHT30;51827;51.186;6.926;2023-04-24T03:17:20;20.39;52.80
65239;SHT30;51827;51.186;6.926;2023-04-24T03:18:21;20.38;52.79
65239;SHT30;51827;51.186;6.926;2023-04-24T03:19:21;20.38;52.73
65239;SHT30;51827;51.186;6.926;2023-04-24T03:20:21;20.41;52.75
65239;SHT30;51827;51.186;6.926;2023-04-24T03:21:22;20.38;52.80
65239;SHT30;51827;51.186;6.926;2023-04-24T03:22:22;20.38;52.78
65239;SHT30;51827;51.186;6.926;2023-04-24T03:23:23;20.41;52.77
65239;SHT30;51827;51.186;6.926;2023-04-24T03:24:23;20.41;52.78
65239;SHT30;51827;51.186;6.926;2023-04-24T03:25:23;20.39;52.78
65239;SHT30;51827;51.186;6.926;2023-04-24T03:26:23;20.39;52.77
65239;SHT30;51827;51.186;6.926;2023-04-24T03:27:24;20.38;52.78
65239;SHT30;51827;51.186;6.926;2023-04-24T03:28:24;20.41;52.77
65239;SHT30;51827;51.186;6.926;2023-04-24T03:29:24;20.39;52.73
65239;SHT30;51827;51.186;6.926;2023-04-24T03:30:24;20.35;52.77
65239;SHT30;51827;51.186;6.926;2023-04-24T03:31:24;20.38;52.71
65239;SHT30;51827;51.186;6.926;2023-04-24T03:32:25;20.37;52.74
65239;SHT30;51827;51.186;6.926;2023-04-24T03:33:25;20.37;52.74
65239;SHT30;51827;51.186;6.926;2023-04-24T03:34:25;20.38;52.75
65239;SHT30;51827;51.186;6.926;2023-04-24T03:35:26;20.39;52.74
65239;SHT30;51827;51.186;6.926;2023-04-24T03:36:26;20.38;52.74
65239;SHT30;51827;51.186;6.926;2023-04-24T03:37:26;20.38;52.77
65239;SHT30;51827;51.186;6.926;2023-04-24T03:38:26;20.37;52.70
65239;SHT30;51827;51.186;6.926;2023-04-24T03:39:26;20.37;52.72
65239;SHT30;51827;51.186;6.926;2023-04-24T03:40:27;20.38;52.72
65239;SHT30;51827;51.186;6.926;2023-04-24T03:41:27;20.38;52.69
65239;SHT30;51827;51.186;6.926;2023-04-24T03:42:27;20.35;52.71
65239;SHT30;51827;51.186;6.926;2023-04-24T03:43:27;20.35;52.68
65239;SHT30;51827;51.186;6.926;2023-04-24T03:44:28;20.38;52.72
65239;SHT30;51827;51.186;6.926;2023-04-24T03:45:28;20.38;52.73
65239;SHT30;51827;51.186;6.926;2023-04-24T03:46:28;20.35;52.68
65239;SHT30;51827;51.186;6.926;2023-04-24T03:47:28;20.37;52.68
65239;SHT30;51827;51.186;6.926;2023-04-24T03:48:29;20.34;52.66
65239;SHT30;51827;51.186;6.926;2023-04-24T03:49:29;20.39;52.71
65239;SHT30;51827;51.186;6.926;2023-04-24T03:50:29;20.37;52.70
65239;SHT30;51827;51.186;6.926;2023-04-24T03:51:30;20.37;52.71
65239;SHT30;51827;51.186;6.926;2023-04-24T03:52:30;20.37;52.72
65239;SHT30;51827;51.186;6.926;2023-04-24T03:53:30;20.37;52.79
65239;SHT30;51827;51.186;6.926;2023-04-24T03:54:30;20.37;52.81
65239;SHT30;51827;51.186;6.926;2023-04-24T03:55:31;20.37;52.82
65239;SHT30;51827;51.186;6.926;2023-04-24T03:56:31;20.37;52.81
65239;SHT30;51827;51.186;6.926;2023-04-24T03:57:31;20.35;52.81
65239;SHT30;51827;51.186;6.926;2023-04-24T03:58:31;20.35;52.84
65239;SHT30;51827;51.186;6.926;2023-04-24T03:59:31;20.35;52.86
65239;SHT30;51827;51.186;6.926;2023-04-24T04:00:32;20.35;52.89
65239;SHT30;51827;51.186;6.926;2023-04-24T04:01:32;20.35;52.93
65239;SHT30;51827;51.186;6.926;2023-04-24T04:02:32;20.35;52.92
65239;SHT30;51827;51.186;6.926;2023-04-24T04:03:32;20.34;52.90
65239;SHT30;51827;51.186;6.926;2023-04-24T04:04:33;20.35;52.93
65239;SHT30;51827;51.186;6.926;2023-04-24T04:05:33;20.38;52.86
65239;SHT30;51827;51.186;6.926;2023-04-24T04:06:34;20.37;52.88
65239;SHT30;51827;51.186;6.926;2023-04-24T04:07:34;20.35;52.89
65239;SHT30;51827;51.186;6.926;2023-04-24T04:08:34;20.37;52.96
65239;SHT30;51827;51.186;6.926;2023-04-24T04:09:34;20.37;52.96
65239;SHT30;51827;51.186;6.926;2023-04-24T04:10:34;20.37;52.98
65239;SHT30;51827;51.186;6.926;2023-04-24T04:11:35;20.35;53.02
65239;SHT30;51827;51.186;6.926;2023-04-24T04:12:35;20.35;53.06
65239;SHT30;51827;51.186;6.926;2023-04-24T04:13:35;20.34;53.06
65239;SHT30;51827;51.186;6.926;2023-04-24T04:14:36;20.35;53.04
65239;SHT30;51827;51.186;6.926;2023-04-24T04:15:36;20.35;53.02
65239;SHT30;51827;51.186;6.926;2023-04-24T04:16:36;20.35;53.04
65239;SHT30;51827;51.186;6.926;2023-04-24T04:17:36;20.34;53.01
65239;SHT30;51827;51.186;6.926;2023-04-24T04:18:37;20.37;53.03
65239;SHT30;51827;51.186;6.926;2023-04-24T04:19:37;20.35;52.98
65239;SHT30;51827;51.186;6.926;2023-04-24T04:20:37;20.35;53.02
65239;SHT30;51827;51.186;6.926;2023-04-24T04:21:37;20.34;52.97
65239;SHT30;51827;51.186;6.926;2023-04-24T04:22:37;20.37;53.02
65239;SHT30;51827;51.186;6.926;2023-04-24T04:23:38;20.34;53.03
65239;SHT30;51827;51.186;6.926;2023-04-24T04:24:38;20.35;53.01
65239;SHT30;51827;51.186;6.926;2023-04-24T04:25:38;20.37;53.02
65239;SHT30;51827;51.186;6.926;2023-04-24T04:26:38;20.34;53.01
65239;SHT30;51827;51.186;6.926;2023-04-24T04:27:39;20.34;53.01
65239;SHT30;51827;51.186;6.926;2023-04-24T04:28:39;20.34;52.97
65239;SHT30;51827;51.186;6.926;2023-04-24T04:29:39;20.32;53.01
65239;SHT30;51827;51.186;6.926;2023-04-24T04:30:40;20.35;52.98
65239;SHT30;51827;51.186;6.926;2023-04-24T04:31:40;20.34;52.97
65239;SHT30;51827;51.186;6.926;2023-04-24T04:32:40;20.34;52.97
65239;SHT30;51827;51.186;6.926;2023-04-24T04:33:40;20.32;52.97
65239;SHT30;51827;51.186;6.926;2023-04-24T04:34:41;20.35;52.97
65239;SHT30;51827;51.186;6.926;2023-04-24T04:35:41;20.35;52.96
65239;SHT30;51827;51.186;6.926;2023-04-24T04:36:42;20.34;53.00
65239;SHT30;51827;51.186;6.926;2023-04-24T04:37:42;20.32;52.96
65239;SHT30;51827;51.186;6.926;2023-04-24T04:38:42;20.37;52.95
65239;SHT30;51827;51.186;6.926;2023-04-24T04:39:43;20.34;52.97
65239;SHT30;51827;51.186;6.926;2023-04-24T04:40:43;20.32;52.94
65239;SHT30;51827;51.186;6.926;2023-04-24T04:41:44;20.34;53.00
65239;SHT30;51827;51.186;6.926;2023-04-24T04:42:44;20.34;53.01
65239;SHT30;51827;51.186;6.926;2023-04-24T04:43:44;20.31;52.98
65239;SHT30;51827;51.186;6.926;2023-04-24T04:44:45;20.32;52.94
65239;SHT30;51827;51.186;6.926;2023-04-24T04:45:45;20.34;52.97
65239;SHT30;51827;51.186;6.926;2023-04-24T04:46:45;20.34;53.00
65239;SHT30;51827;51.186;6.926;2023-04-24T04:47:46;20.37;53.01
65239;SHT30;51827;51.186;6.926;2023-04-24T04:48:46;20.34;53.04
65239;SHT30;51827;51.186;6.926;2023-04-24T04:49:46;20.35;53.05
65239;SHT30;51827;51.186;6.926;2023-04-24T04:50:47;20.31;53.08
65239;SHT30;51827;51.186;6.926;2023-04-24T04:51:47;20.34;53.05
65239;SHT30;51827;51.186;6.926;2023-04-24T04:52:47;20.31;53.09
65239;SHT30;51827;51.186;6.926;2023-04-24T04:53:47;20.34;53.06
65239;SHT30;51827;51.186;6.926;2023-04-24T04:54:48;20.34;53.05
65239;SHT30;51827;51.186;6.926;2023-04-24T04:55:48;20.32;53.03
65239;SHT30;51827;51.186;6.926;2023-04-24T04:56:51;20.34;53.05
65239;SHT30;51827;51.186;6.926;2023-04-24T04:57:52;20.34;53.08
65239;SHT30;51827;51.186;6.926;2023-04-24T04:58:52;20.38;53.04
65239;SHT30;51827;51.186;6.926;2023-04-24T04:59:52;20.35;53.00
65239;SHT30;51827;51.186;6.926;2023-04-24T05:00:53;20.34;53.01
65239;SHT30;51827;51.186;6.926;2023-04-24T05:01:53;20.32;53.04
65239;SHT30;51827;51.186;6.926;2023-04-24T05:02:53;20.34;52.98
65239;SHT30;51827;51.186;6.926;2023-04-24T05:03:53;20.32;52.95
65239;SHT30;51827;51.186;6.926;2023-04-24T05:04:54;20.32;52.95
65239;SHT30;51827;51.186;6.926;2023-04-24T05:05:54;20.34;52.98
65239;SHT30;51827;51.186;6.926;2023-04-24T05:06:54;20.34;52.94
65239;SHT30;51827;51.186;6.926;2023-04-24T05:07:55;20.34;52.94
65239;SHT30;51827;51.186;6.926;2023-04-24T05:08:55;20.34;52.90
65239;SHT30;51827;51.186;6.926;2023-04-24T05:09:55;20.32;52.91
65239;SHT30;51827;51.186;6.926;2023-04-24T05:10:55;20.34;52.94
65239;SHT30;51827;51.186;6.926;2023-04-24T05:11:56;20.32;52.91
65239;SHT30;51827;51.186;6.926;2023-04-24T05:12:56;20.34;52.92
65239;SHT30;51827;51.186;6.926;2023-04-24T05:13:56;20.34;52.86
65239;SHT30;51827;51.186;6.926;2023-04-24T05:14:56;20.32;52.90
65239;SHT30;51827;51.186;6.926;2023-04-24T05:15:57;20.31;52.91
65239;SHT30;51827;51.186;6.926;2023-04-24T05:16:57;20.32;52.89
65239;SHT30;51827;51.186;6.926;2023-04-24T05:17:58;20.29;52.86
65239;SHT30;51827;51.186;6.926;2023-04-24T05:18:58;20.32;52.85
65239;SHT30;51827;51.186;6.926;2023-04-24T05:19:59;20.29;52.87
65239;SHT30;51827;51.186;6.926;2023-04-24T05:20:59;20.32;52.83
65239;SHT30;51827;51.186;6.926;2023-04-24T05:21:59;20.32;52.83
65239;SHT30;51827;51.186;6.926;2023-04-24T05:22:59;20.32;52.84
65239;SHT30;51827;51.186;6.926;2023-04-24T05:23:59;20.31;52.81
65239;SHT30;51827;51.186;6.926;2023-04-24T05:25:00;20.31;52.81
65239;SHT30;51827;51.186;6.926;2023-04-24T05:26:00;20.32;52.79
65239;SHT30;51827;51.186;6.926;2023-04-24T05:27:01;20.31;52.76
65239;SHT30;51827;51.186;6.926;2023-04-24T05:28:01;20.29;52.77
65239;SHT30;51827;51.186;6.926;2023-04-24T05:29:02;20.31;52.76
65239;SHT30;51827;51.186;6.926;2023-04-24T05:30:02;20.32;52.79
65239;SHT30;51827;51.186;6.926;2023-04-24T05:31:03;20.31;52.74
65239;SHT30;51827;51.186;6.926;2023-04-24T05:32:03;20.29;52.77
65239;SHT30;51827;51.186;6.926;2023-04-24T05:33:03;20.29;52.72
65239;SHT30;51827;51.186;6.926;2023-04-24T05:34:04;20.31;52.73
65239;SHT30;51827;51.186;6.926;2023-04-24T05:35:04;20.31;52.71
65239;SHT30;51827;51.186;6.926;2023-04-24T05:36:06;20.31;52.70
65239;SHT30;51827;51.186;6.926;2023-04-24T05:37:06;20.28;52.71
65239;SHT30;51827;51.186;6.926;2023-04-24T05:38:06;20.29;52.69
65239;SHT30;51827;51.186;6.926;2023-04-24T05:39:06;20.28;52.68
65239;SHT30;51827;51.186;6.926;2023-04-24T05:40:07;20.31;52.67
65239;SHT30;51827;51.186;6.926;2023-04-24T05:41:08;20.29;52.68
65239;SHT30;51827;51.186;6.926;2023-04-24T05:42:08;20.31;52.64
65239;SHT30;51827;51.186;6.926;2023-04-24T05:43:08;20.29;52.64
65239;SHT30;51827;51.186;6.926;2023-04-24T05:44:09;20.31;52.65
65239;SHT30;51827;51.186;6.926;2023-04-24T05:45:09;20.29;52.65
65239;SHT30;51827;51.186;6.926;2023-04-24T05:46:11;20.28;52.61
65239;SHT30;51827;51.186;6.926;2023-04-24T05:47:11;20.31;52.63
65239;SHT30;51827;51.186;6.926;2023-04-24T05:48:12;20.28;52.65
65239;SHT30;51827;51.186;6.926;2023-04-24T05:49:12;20.31;52.63
65239;SHT30;51827;51.186;6.926;2023-04-24T05:50:13;20.29;52.57
65239;SHT30;51827;51.186;6.926;2023-04-24T05:51:13;20.28;52.57
65239;SHT30;51827;51.186;6.926;2023-04-24T05:52:14;20.29;52.53
65239;SHT30;51827;51.186;6.926;2023-04-24T05:53:14;20.28;52.58
65239;SHT30;51827;51.186;6.926;2023-04-24T05:54:18;20.29;52.54
65239;SHT30;51827;51.186;6.926;2023-04-24T05:55:18;20.29;52.53
65239;SHT30;51827;51.186;6.926;2023-04-24T05:56:18;20.28;52.49
65239;SHT30;51827;51.186;6.926;2023-04-24T05:57:19;20.28;52.50
65239;SHT30;51827;51.186;6.926;2023-04-24T05:58:19;20.29;52.43
65239;SHT30;51827;51.186;6.926;2023-04-24T05:59:19;20.28;52.43
65239;SHT30;51827;51.186;6.926;2023-04-24T06:00:20;20.28;52.47
65239;SHT30;51827;51.186;6.926;2023-04-24T06:01:20;20.27;52.50
65239;SHT30;51827;51.186;6.926;2023-04-24T06:02:20;20.27;52.46
65239;SHT30;51827;51.186;6.926;2023-04-24T06:03:21;20.31;52.44
65239;SHT30;51827;51.186;6.926;2023-04-24T06:04:21;20.28;52.41
65239;SHT30;51827;51.186;6.926;2023-04-24T06:05:21;20.27;52.42
65239;SHT30;51827;51.186;6.926;2023-04-24T06:06:22;20.29;52.43
65239;SHT30;51827;51.186;6.926;2023-04-24T06:07:23;20.28;52.44
65239;SHT30;51827;51.186;6.926;2023-04-24T06:08:23;20.28;52.44
65239;SHT30;51827;51.186;6.926;2023-04-24T06:09:24;20.27;52.41
65239;SHT30;51827;51.186;6.926;2023-04-24T06:10:24;20.28;52.42
65239;SHT30;51827;51.186;6.926;2023-04-24T06:11:24;20.25;52.43
65239;SHT30;51827;51.186;6.926;2023-04-24T06:12:25;20.28;52.43
65239;SHT30;51827;51.186;6.926;2023-04-24T06:13:25;20.29;52.47
65239;SHT30;51827;51.186;6.926;2023-04-24T06:14:25;20.28;52.42
65239;SHT30;51827;51.186;6.926;2023-04-24T06:15:29;20.28;52.42
65239;SHT30;51827;51.186;6.926;2023-04-24T06:16:30;20.27;52.42
65239;SHT30;51827;51.186;6.926;2023-04-24T06:17:31;20.25;52.42
65239;SHT30;51827;51.186;6.926;2023-04-24T06:18:31;20.25;52.43
65239;SHT30;51827;51.186;6.926;2023-04-24T06:19:31;20.27;52.42
65239;SHT30;51827;51.186;6.926;2023-04-24T06:20:31;20.25;52.39
65239;SHT30;51827;51.186;6.926;2023-04-24T06:21:32;20.28;52.42